Omskiy-141 — UGZK — position and weather

sailwx.info

Track history (hours):
 
Tides and Currents Weather Stations Pressure Air Temp Water Temp Dewpoint Dewpoint Depression Visibility Wind Speed Wind Dir Waves Ship Positions

Omskiy-141

Last reported at 2015-Aug-28 19:33 UTC. Time now 2015-Aug-29 06:14 UTC.
Position N 59°60' E 029°40'.

Length 108 m; draft 3.2 m.

Type: Cargo ship. MMSI: 273310600.

Date/timePositionNaut miles runAvg speedWind from/ knotsBaromVisibWave heightAir tempDewpointWater temp
2015-Aug-28 19:33N 59°60' E 029°40'6 5.9
2015-Aug-28 18:33N 59°57' E 029°51'7 6.8
2015-Aug-28 17:33N 59°55' E 030°03'5 5.3
2015-Aug-28 16:33N 59°55' E 030°14'0 0.0
2015-Aug-28 15:31N 59°55' E 030°14'0 0.0
2015-Aug-28 14:31N 59°55' E 030°14'0 0.0
2015-Aug-28 13:31N 59°55' E 030°14'0 0.0
2015-Aug-28 12:31N 59°55' E 030°14'0 0.0
2015-Aug-28 11:31N 59°55' E 030°14'0 0.0
2015-Aug-28 10:31N 59°55' E 030°14'0 0.0
2015-Aug-28 09:31N 59°55' E 030°14'0 0.0
2015-Aug-28 08:31N 59°55' E 030°14'0 0.0
2015-Aug-28 07:31N 59°55' E 030°14'0 0.0
2015-Aug-28 06:31N 59°55' E 030°14'0 0.0
2015-Aug-28 05:31N 59°55' E 030°14'0 0.0
2015-Aug-28 04:31N 59°55' E 030°14'0 0.0
2015-Aug-28 03:28N 59°55' E 030°14'0 0.0
2015-Aug-28 02:31N 59°55' E 030°14'0 0.0
2015-Aug-28 01:31N 59°55' E 030°14'6 5.7
2015-Aug-28 00:33N 59°57' E 030°24'7 7.1
2015-Aug-27 23:33N 59°51' E 030°30'1 1.1
2015-Aug-27 22:28N 59°50' E 030°31'0 0.0
2015-Aug-27 21:31N 59°50' E 030°31'0 0.0
2015-Aug-27 20:28N 59°50' E 030°31'0 0.0
2015-Aug-27 19:25N 59°50' E 030°31'0 0.0
2015-Aug-27 18:31N 59°50' E 030°31'0 0.0
2015-Aug-27 17:19N 59°50' E 030°31'0 0.0
2015-Aug-27 16:28N 59°50' E 030°31'0 0.0
2015-Aug-27 15:31N 59°50' E 030°31'0 0.0
2015-Aug-27 14:31N 59°50' E 030°31'0 0.0
2015-Aug-27 13:32N 59°50' E 030°31'  
2015-Aug-21 03:33N 59°47' E 030°45'6 5.6
2015-Aug-21 02:33N 59°49' E 030°35'5 5.1
2015-Aug-21 01:33N 59°53' E 030°27'4 3.7
2015-Aug-21 00:33N 59°56' E 030°24'0 0.3
2015-Aug-20 23:33N 59°56' E 030°24'4 3.6
2015-Aug-20 22:32N 59°56' E 030°16'2 2.1
2015-Aug-20 21:31N 59°54' E 030°14'0 0.0
2015-Aug-20 20:31N 59°54' E 030°14'0 0.0
2015-Aug-20 19:31N 59°54' E 030°14'0 0.0
2015-Aug-20 18:31N 59°54' E 030°14'0 0.0
2015-Aug-20 17:31N 59°54' E 030°14'0 0.0
2015-Aug-20 16:31N 59°54' E 030°14'0 0.0
2015-Aug-20 15:31N 59°54' E 030°14'2 2.0
2015-Aug-20 14:33N 59°53' E 030°10'8 7.9
2015-Aug-20 13:33N 59°56' E 029°56'8 8.3
2015-Aug-20 12:33N 59°60' E 029°41'7 7.4
2015-Aug-20 11:33N 60°01' E 029°26'4 4.1
2015-Aug-20 10:33N 60°01' E 029°18'68 6.5
2015-Aug-20 00:08N 59°58' E 027°03'6 7.8
2015-Aug-19 23:25N 59°58' E 026°52'7 7.7
2015-Aug-19 22:33N 59°59' E 026°38'10 7.6
2015-Aug-19 21:19N 59°57' E 026°20'8 7.6
2015-Aug-19 20:12N 59°54' E 026°04'122 7.2
2015-Aug-19 03:17N 59°36' E 022°05'5 7.2
2015-Aug-19 02:33N 59°36' E 021°55'7 7.3
2015-Aug-19 01:33N 59°36' E 021°40'7 7.4
2015-Aug-19 00:33N 59°36' E 021°26'8 7.4
2015-Aug-18 23:30N 59°36' E 021°10'  
Track history (hours):
 
Tides and Currents Weather Stations Pressure Air Temp Water Temp Dewpoint Dewpoint Depression Visibility Wind Speed Wind Dir Waves Ship Positions

Omskiy-141

Last reported at 2015-Aug-28 19:33 UTC. Time now 2015-Aug-29 06:14 UTC.
Position N 59°60' E 029°40'.

Length 108 m; draft 3.2 m.

Type: Cargo ship. MMSI: 273310600.

Date/timePositionNaut miles runAvg speedWind from/ knotsBaromVisibWave heightAir tempDewpointWater temp
2015-Aug-28 19:33N 59°60' E 029°40'6 5.9
2015-Aug-28 18:33N 59°57' E 029°51'7 6.8
2015-Aug-28 17:33N 59°55' E 030°03'5 5.3
2015-Aug-28 16:33N 59°55' E 030°14'0 0.0
2015-Aug-28 15:31N 59°55' E 030°14'0 0.0
2015-Aug-28 14:31N 59°55' E 030°14'0 0.0
2015-Aug-28 13:31N 59°55' E 030°14'0 0.0
2015-Aug-28 12:31N 59°55' E 030°14'0 0.0
2015-Aug-28 11:31N 59°55' E 030°14'0 0.0
2015-Aug-28 10:31N 59°55' E 030°14'0 0.0
2015-Aug-28 09:31N 59°55' E 030°14'0 0.0
2015-Aug-28 08:31N 59°55' E 030°14'0 0.0
2015-Aug-28 07:31N 59°55' E 030°14'0 0.0
2015-Aug-28 06:31N 59°55' E 030°14'0 0.0
2015-Aug-28 05:31N 59°55' E 030°14'0 0.0
2015-Aug-28 04:31N 59°55' E 030°14'0 0.0
2015-Aug-28 03:28N 59°55' E 030°14'0 0.0
2015-Aug-28 02:31N 59°55' E 030°14'0 0.0
2015-Aug-28 01:31N 59°55' E 030°14'6 5.7
2015-Aug-28 00:33N 59°57' E 030°24'7 7.1
2015-Aug-27 23:33N 59°51' E 030°30'1 1.1
2015-Aug-27 22:28N 59°50' E 030°31'0 0.0
2015-Aug-27 21:31N 59°50' E 030°31'0 0.0
2015-Aug-27 20:28N 59°50' E 030°31'0 0.0
2015-Aug-27 19:25N 59°50' E 030°31'0 0.0
2015-Aug-27 18:31N 59°50' E 030°31'0 0.0
2015-Aug-27 17:19N 59°50' E 030°31'0 0.0
2015-Aug-27 16:28N 59°50' E 030°31'0 0.0
2015-Aug-27 15:31N 59°50' E 030°31'0 0.0
2015-Aug-27 14:31N 59°50' E 030°31'0 0.0
2015-Aug-27 13:32N 59°50' E 030°31'  
2015-Aug-21 03:33N 59°47' E 030°45'6 5.6
2015-Aug-21 02:33N 59°49' E 030°35'5 5.1
2015-Aug-21 01:33N 59°53' E 030°27'4 3.7
2015-Aug-21 00:33N 59°56' E 030°24'0 0.3
2015-Aug-20 23:33N 59°56' E 030°24'4 3.6
2015-Aug-20 22:32N 59°56' E 030°16'2 2.1
2015-Aug-20 21:31N 59°54' E 030°14'0 0.0
2015-Aug-20 20:31N 59°54' E 030°14'0 0.0
2015-Aug-20 19:31N 59°54' E 030°14'0 0.0
2015-Aug-20 18:31N 59°54' E 030°14'0 0.0
2015-Aug-20 17:31N 59°54' E 030°14'0 0.0
2015-Aug-20 16:31N 59°54' E 030°14'0 0.0
2015-Aug-20 15:31N 59°54' E 030°14'2 2.0
2015-Aug-20 14:33N 59°53' E 030°10'8 7.9
2015-Aug-20 13:33N 59°56' E 029°56'8 8.3
2015-Aug-20 12:33N 59°60' E 029°41'7 7.4
2015-Aug-20 11:33N 60°01' E 029°26'4 4.1
2015-Aug-20 10:33N 60°01' E 029°18'68 6.5
2015-Aug-20 00:08N 59°58' E 027°03'6 7.8
2015-Aug-19 23:25N 59°58' E 026°52'7 7.7
2015-Aug-19 22:33N 59°59' E 026°38'10 7.6
2015-Aug-19 21:19N 59°57' E 026°20'8 7.6
2015-Aug-19 20:12N 59°54' E 026°04'122 7.2
2015-Aug-19 03:17N 59°36' E 022°05'5 7.2
2015-Aug-19 02:33N 59°36' E 021°55'7 7.3
2015-Aug-19 01:33N 59°36' E 021°40'7 7.4
2015-Aug-19 00:33N 59°36' E 021°26'8 7.4
2015-Aug-18 23:30N 59°36' E 021°10'  

Dump ship's entire track history